Private Wetterstation Sandau
Wetterdaten: Dienstag, 31.07.2012
Datum Zeit Temp. A. Feuchte A. Luftdruck Regen Wind Richtung Richtung Taupunkt Windchill
31.07.2012 00:01 12,7 C 74 % 1018,1 hPa 0,0 l/m 0,0 km/h (0 Bft) S 180 8,2 C 12,7 C
31.07.2012 00:06 12,7 C 74 % 1018,0 hPa 0,0 l/m 2,2 km/h (1 Bft) S-SO 157 8,2 C 12,7 C
31.07.2012 00:11 12,6 C 75 % 1017,9 hPa 0,0 l/m 0,0 km/h (0 Bft) S 180 8,3 C 12,6 C
31.07.2012 00:16 12,6 C 75 % 1017,9 hPa 0,0 l/m 0,0 km/h (0 Bft) S-SW 202 8,3 C 12,6 C
31.07.2012 00:21 12,6 C 76 % 1017,9 hPa 0,0 l/m 1,1 km/h (1 Bft) S 180 8,5 C 12,6 C
31.07.2012 00:26 12,6 C 76 % 1017,8 hPa 0,0 l/m 0,0 km/h (0 Bft) S-SO 157 8,5 C 12,6 C
31.07.2012 00:31 12,6 C 77 % 1017,8 hPa 0,0 l/m 2,9 km/h (1 Bft) SO 135 8,7 C 12,6 C
31.07.2012 00:36 12,5 C 77 % 1017,8 hPa 0,0 l/m 0,0 km/h (0 Bft) SO 135 8,6 C 12,5 C
31.07.2012 00:41 12,4 C 77 % 1017,8 hPa 0,0 l/m 0,0 km/h (0 Bft) S 180 8,5 C 12,4 C
31.07.2012 00:46 12,4 C 77 % 1017,9 hPa 0,0 l/m 0,0 km/h (0 Bft) S-SO 157 8,5 C 12,4 C
31.07.2012 00:51 12,4 C 77 % 1017,8 hPa 0,0 l/m 0,0 km/h (0 Bft) S 180 8,5 C 12,4 C
31.07.2012 00:56 12,5 C 77 % 1017,9 hPa 0,0 l/m 0,0 km/h (0 Bft) S-SW 202 8,6 C 12,5 C
31.07.2012 01:01 12,6 C 77 % 1017,9 hPa 0,0 l/m 1,1 km/h (1 Bft) W-SW 247 8,7 C 12,6 C
31.07.2012 01:06 12,6 C 77 % 1017,9 hPa 0,0 l/m 0,0 km/h (0 Bft) W-SW 247 8,7 C 12,6 C
31.07.2012 01:11 12,7 C 77 % 1017,9 hPa 0,0 l/m 2,9 km/h (1 Bft) S-SW 202 8,8 C 12,7 C
31.07.2012 01:16 12,8 C 77 % 1017,9 hPa 0,0 l/m 4,3 km/h (1 Bft) SO 135 8,9 C 12,8 C
31.07.2012 01:21 12,8 C 77 % 1018,0 hPa 0,0 l/m 4,0 km/h (1 Bft) S-SO 157 8,9 C 12,8 C
31.07.2012 01:26 12,8 C 77 % 1018,1 hPa 0,0 l/m 2,5 km/h (1 Bft) S-SO 157 8,9 C 12,8 C
31.07.2012 01:31 12,7 C 77 % 1018,0 hPa 0,0 l/m 3,6 km/h (1 Bft) S-SO 157 8,8 C 12,7 C
31.07.2012 01:36 12,7 C 77 % 1018,0 hPa 0,0 l/m 5,8 km/h (2 Bft) SO 135 8,8 C 12,7 C
31.07.2012 01:41 12,6 C 77 % 1018,1 hPa 0,0 l/m 1,8 km/h (1 Bft) S 180 8,7 C 12,6 C
31.07.2012 01:46 12,6 C 78 % 1018,1 hPa 0,0 l/m 2,2 km/h (1 Bft) S-SO 157 8,9 C 12,6 C
31.07.2012 01:51 12,5 C 78 % 1018,1 hPa 0,0 l/m 0,0 km/h (0 Bft) SO 135 8,8 C 12,5 C
31.07.2012 01:56 12,5 C 78 % 1018,0 hPa 0,0 l/m 2,9 km/h (1 Bft) SW 225 8,8 C 12,5 C
31.07.2012 02:01 12,5 C 78 % 1018,1 hPa 0,0 l/m 2,5 km/h (1 Bft) S 180 8,8 C 12,5 C
31.07.2012 02:06 12,5 C 78 % 1018,2 hPa 0,0 l/m 3,2 km/h (1 Bft) S 180 8,8 C 12,5 C
31.07.2012 02:11 12,4 C 78 % 1018,3 hPa 0,0 l/m 2,5 km/h (1 Bft) S-SO 157 8,7 C 12,4 C
31.07.2012 02:16 12,4 C 78 % 1018,2 hPa 0,0 l/m 2,5 km/h (1 Bft) S 180 8,7 C 12,4 C
31.07.2012 02:21 12,4 C 78 % 1018,2 hPa 0,0 l/m 4,0 km/h (1 Bft) SO 135 8,7 C 12,4 C
31.07.2012 02:26 12,3 C 79 % 1018,1 hPa 0,0 l/m 3,6 km/h (1 Bft) S 180 8,8 C 12,3 C
31.07.2012 02:31 12,3 C 79 % 1018,2 hPa 0,0 l/m 1,8 km/h (1 Bft) S 180 8,8 C 12,3 C
31.07.2012 02:36 12,3 C 79 % 1018,2 hPa 0,0 l/m 2,2 km/h (1 Bft) S 180 8,8 C 12,3 C
31.07.2012 02:41 12,3 C 79 % 1018,0 hPa 0,0 l/m 2,5 km/h (1 Bft) S-SO 157 8,8 C 12,3 C
31.07.2012 02:46 12,3 C 79 % 1018,2 hPa 0,0 l/m 2,9 km/h (1 Bft) S-SO 157 8,8 C 12,3 C
31.07.2012 02:51 12,3 C 79 % 1018,2 hPa 0,0 l/m 3,6 km/h (1 Bft) S-SW 202 8,8 C 12,3 C
31.07.2012 02:56 12,3 C 79 % 1018,2 hPa 0,0 l/m 2,5 km/h (1 Bft) S-SW 202 8,8 C 12,3 C
31.07.2012 03:01 12,3 C 79 % 1018,2 hPa 0,0 l/m 0,0 km/h (0 Bft) S 180 8,8 C 12,3 C
31.07.2012 03:06 12,3 C 79 % 1018,2 hPa 0,0 l/m 2,2 km/h (1 Bft) S 180 8,8 C 12,3 C
31.07.2012 03:11 12,3 C 79 % 1018,2 hPa 0,0 l/m 3,2 km/h (1 Bft) S-SO 157 8,8 C 12,3 C
31.07.2012 03:16 12,3 C 79 % 1018,3 hPa 0,0 l/m 2,2 km/h (1 Bft) S 180 8,8 C 12,3 C
31.07.2012 03:21 12,3 C 80 % 1018,3 hPa 0,0 l/m 0,0 km/h (0 Bft) S-SW 202 8,9 C 12,3 C
31.07.2012 03:26 12,3 C 80 % 1018,3 hPa 0,0 l/m 2,2 km/h (1 Bft) S 180 8,9 C 12,3 C
31.07.2012 03:31 12,3 C 80 % 1018,2 hPa 0,0 l/m 0,0 km/h (0 Bft) S 180 8,9 C 12,3 C
31.07.2012 03:36 12,3 C 80 % 1018,2 hPa 0,0 l/m 1,4 km/h (1 Bft) S-SO 157 8,9 C 12,3 C
31.07.2012 03:41 12,4 C 80 % 1018,0 hPa 0,0 l/m 1,8 km/h (1 Bft) S-SO 157 9,0 C 12,4 C
31.07.2012 03:46 12,4 C 79 % 1018,1 hPa 0,0 l/m 4,0 km/h (1 Bft) S-SO 157 8,9 C 12,4 C
31.07.2012 03:51 12,4 C 79 % 1018,2 hPa 0,0 l/m 4,0 km/h (1 Bft) S-SW 202 8,9 C 12,4 C
31.07.2012 03:56 12,3 C 79 % 1018,1 hPa 0,0 l/m 4,0 km/h (1 Bft) S-SW 202 8,8 C 12,3 C
31.07.2012 04:01 12,3 C 79 % 1018,0 hPa 0,0 l/m 0,0 km/h (0 Bft) S-SO 157 8,8 C 12,3 C
31.07.2012 04:06 12,3 C 80 % 1018,2 hPa 0,0 l/m 1,1 km/h (1 Bft) S-SO 157 8,9 C 12,3 C
31.07.2012 04:11 12,3 C 80 % 1018,1 hPa 0,0 l/m 0,0 km/h (0 Bft) S-SO 157 8,9 C 12,3 C
31.07.2012 04:16 12,3 C 80 % 1018,2 hPa 0,0 l/m 2,5 km/h (1 Bft) S 180 8,9 C 12,3 C
31.07.2012 04:21 12,3 C 80 % 1018,2 hPa 0,0 l/m 3,2 km/h (1 Bft) S-SO 157 8,9 C 12,3 C
31.07.2012 04:26 12,2 C 80 % 1018,2 hPa 0,0 l/m 3,6 km/h (1 Bft) S-SO 157 8,9 C 12,2 C
31.07.2012 04:31 12,2 C 80 % 1018,2 hPa 0,0 l/m 0,0 km/h (0 Bft) S-SW 202 8,9 C 12,2 C
31.07.2012 04:36 12,1 C 80 % 1018,2 hPa 0,0 l/m 2,5 km/h (1 Bft) S-SW 202 8,8 C 12,1 C
31.07.2012 04:41 12,1 C 80 % 1018,2 hPa 0,0 l/m 1,4 km/h (1 Bft) S 180 8,8 C 12,1 C
31.07.2012 04:46 12,1 C 80 % 1018,4 hPa 0,0 l/m 3,2 km/h (1 Bft) S 180 8,8 C 12,1 C
31.07.2012 04:51 12,0 C 80 % 1018,2 hPa 0,0 l/m 4,7 km/h (1 Bft) S 180 8,7 C 12,0 C
31.07.2012 04:56 11,9 C 80 % 1018,3 hPa 0,0 l/m 0,0 km/h (0 Bft) S-SO 157 8,6 C 11,9 C
31.07.2012 05:01 11,9 C 80 % 1018,4 hPa 0,0 l/m 1,8 km/h (1 Bft) S 180 8,6 C 11,9 C
31.07.2012 05:06 11,9 C 81 % 1018,3 hPa 0,0 l/m 1,4 km/h (1 Bft) S 180 8,7 C 11,9 C
31.07.2012 05:11 11,9 C 81 % 1018,3 hPa 0,0 l/m 0,0 km/h (0 Bft) SO 135 8,7 C 11,9 C
31.07.2012 05:16 11,8 C 81 % 1018,4 hPa 0,0 l/m 2,2 km/h (1 Bft) S-SO 157 8,6 C 11,8 C
31.07.2012 05:21 11,8 C 81 % 1018,3 hPa 0,0 l/m 0,0 km/h (0 Bft) S-SO 157 8,6 C 11,8 C
31.07.2012 05:26 11,8 C 81 % 1018,4 hPa 0,0 l/m 0,0 km/h (0 Bft) S-SO 157 8,6 C 11,8 C
31.07.2012 05:31 11,6 C 81 % 1018,4 hPa 0,0 l/m 1,4 km/h (1 Bft) S-SO 157 8,5 C 11,6 C
31.07.2012 05:36 11,6 C 81 % 1018,3 hPa 0,0 l/m 1,1 km/h (1 Bft) S 180 8,5 C 11,6 C
31.07.2012 05:41 11,6 C 81 % 1018,4 hPa 0,0 l/m 0,0 km/h (0 Bft) S 180 8,5 C 11,6 C
31.07.2012 05:46 11,5 C 81 % 1018,4 hPa 0,0 l/m 2,5 km/h (1 Bft) SW 225 8,4 C 11,5 C
31.07.2012 05:51 11,4 C 81 % 1018,4 hPa 0,0 l/m 0,0 km/h (0 Bft) S 180 8,3 C 11,4 C
31.07.2012 05:56 11,4 C 81 % 1018,5 hPa 0,0 l/m 0,0 km/h (0 Bft) S 180 8,3 C 11,4 C
31.07.2012 06:01 11,4 C 81 % 1018,5 hPa 0,0 l/m 0,0 km/h (0 Bft) S-SO 157 8,3 C 11,4 C
31.07.2012 06:06 11,5 C 82 % 1018,4 hPa 0,0 l/m 0,0 km/h (0 Bft) SO 135 8,5 C 11,5 C
31.07.2012 06:11 11,6 C 82 % 1018,5 hPa 0,0 l/m 2,9 km/h (1 Bft) S-SO 157 8,6 C 11,6 C
31.07.2012 06:16 11,8 C 82 % 1018,5 hPa 0,0 l/m 0,0 km/h (0 Bft) S-SO 157 8,8 C 11,8 C
31.07.2012 06:21 11,9 C 82 % 1018,6 hPa 0,0 l/m 3,2 km/h (1 Bft) SO 135 8,9 C 11,9 C
31.07.2012 06:26 12,4 C 82 % 1018,5 hPa 0,0 l/m 2,2 km/h (1 Bft) S-SO 157 9,4 C 12,4 C
31.07.2012 06:31 13,3 C 81 % 1018,4 hPa 0,0 l/m 0,0 km/h (0 Bft) S-SO 157 10,1 C 13,3 C
31.07.2012 06:36 14,3 C 79 % 1018,5 hPa 0,0 l/m 1,8 km/h (1 Bft) SO 135 10,7 C 14,3 C
31.07.2012 06:41 14,9 C 75 % 1018,6 hPa 0,0 l/m 2,9 km/h (1 Bft) S-SO 157 10,5 C 14,9 C
31.07.2012 06:46 15,4 C 73 % 1018,5 hPa 0,0 l/m 2,9 km/h (1 Bft) S-SO 157 10,6 C 15,4 C
31.07.2012 06:51 15,8 C 72 % 1018,6 hPa 0,0 l/m 0,0 km/h (0 Bft) S-SW 202 10,8 C 15,8 C
31.07.2012 06:56 16,0 C 71 % 1018,6 hPa 0,0 l/m 0,0 km/h (0 Bft) S 180 10,7 C 16,0 C
31.07.2012 07:01 15,8 C 70 % 1018,7 hPa 0,0 l/m 1,8 km/h (1 Bft) S 180 10,3 C 15,8 C
31.07.2012 07:06 15,9 C 70 % 1018,8 hPa 0,0 l/m 0,0 km/h (0 Bft) S-SO 157 10,4 C 15,9 C
31.07.2012 07:11 16,2 C 71 % 1018,9 hPa 0,0 l/m 3,6 km/h (1 Bft) S-SO 157 10,9 C 16,2 C
31.07.2012 07:16 16,6 C 70 % 1018,9 hPa 0,0 l/m 2,2 km/h (1 Bft) S-SO 157 11,1 C 16,6 C
31.07.2012 07:21 16,9 C 68 % 1018,9 hPa 0,0 l/m 2,5 km/h (1 Bft) S 180 11,0 C 16,9 C
31.07.2012 07:26 17,1 C 68 % 1018,8 hPa 0,0 l/m 2,5 km/h (1 Bft) S-SW 202 11,1 C 17,1 C
31.07.2012 07:31 17,3 C 68 % 1018,8 hPa 0,0 l/m 0,0 km/h (0 Bft) S-SW 202 11,3 C 17,3 C
31.07.2012 07:36 17,3 C 67 % 1018,9 hPa 0,0 l/m 3,6 km/h (1 Bft) SW 225 11,1 C 17,3 C
31.07.2012 07:41 17,3 C 66 % 1018,8 hPa 0,0 l/m 5,4 km/h (1 Bft) S-SO 157 10,9 C 17,3 C
31.07.2012 07:46 17,4 C 66 % 1018,9 hPa 0,0 l/m 5,0 km/h (1 Bft) SW 225 11,0 C 17,4 C
31.07.2012 07:51 17,4 C 65 % 1018,9 hPa 0,0 l/m 2,2 km/h (1 Bft) S-SW 202 10,8 C 17,4 C
31.07.2012 07:56 17,3 C 66 % 1019,0 hPa 0,0 l/m 3,2 km/h (1 Bft) SW 225 10,9 C 17,3 C
31.07.2012 08:01 17,3 C 66 % 1018,9 hPa 0,0 l/m 1,4 km/h (1 Bft) S 180 10,9 C 17,3 C
31.07.2012 08:06 17,4 C 66 % 1018,9 hPa 0,0 l/m 0,0 km/h (0 Bft) SW 225 11,0 C 17,4 C
31.07.2012 08:11 17,5 C 66 % 1018,9 hPa 0,0 l/m 4,7 km/h (1 Bft) S-SW 202 11,1 C 17,5 C
31.07.2012 08:16 17,7 C 66 % 1019,0 hPa 0,0 l/m 4,7 km/h (1 Bft) W-SW 247 11,3 C 17,7 C
31.07.2012 08:21 17,8 C 65 % 1019,0 hPa 0,0 l/m 3,6 km/h (1 Bft) SW 225 11,1 C 17,8 C
31.07.2012 08:26 17,9 C 63 % 1019,0 hPa 0,0 l/m 9,4 km/h (2 Bft) S-SO 157 10,8 C 17,9 C
31.07.2012 08:31 17,9 C 63 % 1019,1 hPa 0,0 l/m 9,4 km/h (2 Bft) SW 225 10,8 C 17,9 C
31.07.2012 08:36 18,1 C 62 % 1019,0 hPa 0,0 l/m 6,1 km/h (2 Bft) W-SW 247 10,7 C 18,1 C
31.07.2012 08:41 18,2 C 62 % 1018,9 hPa 0,0 l/m 8,3 km/h (2 Bft) W-SW 247 10,8 C 18,2 C
31.07.2012 08:46 18,4 C 60 % 1019,0 hPa 0,0 l/m 4,0 km/h (1 Bft) SW 225 10,5 C 18,4 C
31.07.2012 08:51 18,5 C 60 % 1018,9 hPa 0,0 l/m 7,9 km/h (2 Bft) W-SW 247 10,6 C 18,5 C
31.07.2012 08:56 18,6 C 59 % 1018,9 hPa 0,0 l/m 16,2 km/h (3 Bft) W 270 10,4 C 18,6 C
31.07.2012 09:01 18,5 C 59 % 1018,9 hPa 0,0 l/m 9,0 km/h (2 Bft) SW 225 10,3 C 18,5 C
31.07.2012 09:06 18,6 C 60 % 1018,9 hPa 0,0 l/m 2,5 km/h (1 Bft) W-SW 247 10,7 C 18,6 C
31.07.2012 09:11 18,8 C 59 % 1018,9 hPa 0,0 l/m 6,1 km/h (2 Bft) SW 225 10,6 C 18,8 C
31.07.2012 09:16 18,9 C 58 % 1018,9 hPa 0,0 l/m 6,1 km/h (2 Bft) W 270 10,5 C 18,9 C
31.07.2012 09:21 18,9 C 58 % 1018,9 hPa 0,0 l/m 3,6 km/h (1 Bft) W 270 10,5 C 18,9 C
31.07.2012 09:26 19,1 C 58 % 1018,9 hPa 0,0 l/m 6,8 km/h (2 Bft) W-SW 247 10,6 C 19,1 C
31.07.2012 09:31 19,2 C 58 % 1019,0 hPa 0,0 l/m 8,6 km/h (2 Bft) W-SW 247 10,7 C 19,2 C
31.07.2012 09:36 19,3 C 57 % 1018,9 hPa 0,0 l/m 6,8 km/h (2 Bft) SW 225 10,6 C 19,3 C
31.07.2012 09:41 19,5 C 57 % 1018,9 hPa 0,0 l/m 5,0 km/h (1 Bft) W-SW 247 10,8 C 19,5 C
31.07.2012 09:46 19,6 C 56 % 1018,9 hPa 0,0 l/m 4,7 km/h (1 Bft) W-SW 247 10,6 C 19,6 C
31.07.2012 09:51 19,8 C 55 % 1018,9 hPa 0,0 l/m 8,3 km/h (2 Bft) W-SW 247 10,5 C 19,8 C
31.07.2012 09:56 19,9 C 54 % 1018,8 hPa 0,0 l/m 17,3 km/h (3 Bft) W 270 10,3 C 19,9 C
31.07.2012 10:01 19,9 C 53 % 1018,8 hPa 0,0 l/m 6,5 km/h (2 Bft) SW 225 10,0 C 19,9 C
31.07.2012 10:06 20,0 C 52 % 1018,9 hPa 0,0 l/m 17,3 km/h (3 Bft) W-SW 247 9,8 C 20,0 C
31.07.2012 10:11 20,1 C 52 % 1019,0 hPa 0,0 l/m 6,8 km/h (2 Bft) W-SW 247 9,9 C 20,1 C
31.07.2012 10:16 20,2 C 51 % 1018,9 hPa 0,0 l/m 2,9 km/h (1 Bft) W-SW 247 9,7 C 20,2 C
31.07.2012 10:21 20,3 C 51 % 1019,0 hPa 0,0 l/m 7,2 km/h (2 Bft) W-SW 247 9,8 C 20,3 C
31.07.2012 10:26 20,4 C 51 % 1019,0 hPa 0,0 l/m 9,0 km/h (2 Bft) W-SW 247 9,9 C 20,4 C
31.07.2012 10:31 20,7 C 50 % 1019,1 hPa 0,0 l/m 2,9 km/h (1 Bft) W 270 9,9 C 20,7 C
31.07.2012 10:36 20,9 C 49 % 1019,0 hPa 0,0 l/m 10,8 km/h (2 Bft) W-SW 247 9,8 C 20,9 C
31.07.2012 10:41 21,0 C 49 % 1018,9 hPa 0,0 l/m 6,5 km/h (2 Bft) SW 225 9,9 C 21,0 C
31.07.2012 10:46 21,1 C 49 % 1018,8 hPa 0,0 l/m 3,6 km/h (1 Bft) S-SW 202 10,0 C 21,1 C
31.07.2012 10:51 21,3 C 48 % 1019,0 hPa 0,0 l/m 7,2 km/h (2 Bft) W 270 9,8 C 21,3 C
31.07.2012 10:56 21,4 C 47 % 1019,0 hPa 0,0 l/m 6,1 km/h (2 Bft) W-SW 247 9,6 C 21,4 C
31.07.2012 11:01 21,3 C 46 % 1019,0 hPa 0,0 l/m 0,0 km/h (0 Bft) SW 225 9,2 C 21,3 C
31.07.2012 11:06 21,4 C 46 % 1018,9 hPa 0,0 l/m 7,2 km/h (2 Bft) S-SW 202 9,3 C 21,4 C
31.07.2012 11:11 21,6 C 46 % 1018,9 hPa 0,0 l/m 13,7 km/h (3 Bft) W 270 9,5 C 21,6 C
31.07.2012 11:16 21,8 C 46 % 1019,0 hPa 0,0 l/m 9,7 km/h (2 Bft) W 270 9,7 C 21,8 C
31.07.2012 11:21 21,9 C 45 % 1018,9 hPa 0,0 l/m 7,2 km/h (2 Bft) W-SW 247 9,4 C 21,9 C
31.07.2012 11:26 21,9 C 45 % 1019,0 hPa 0,0 l/m 11,9 km/h (2 Bft) S-SW 202 9,4 C 21,9 C
31.07.2012 11:31 22,1 C 45 % 1019,0 hPa 0,0 l/m 6,1 km/h (2 Bft) W-SW 247 9,6 C 22,1 C
31.07.2012 11:36 22,2 C 44 % 1018,9 hPa 0,0 l/m 14,8 km/h (3 Bft) W-SW 247 9,4 C 22,2 C
31.07.2012 11:41 22,2 C 44 % 1018,8 hPa 0,0 l/m 10,8 km/h (2 Bft) SW 225 9,4 C 22,2 C
31.07.2012 11:46 22,2 C 43 % 1018,9 hPa 0,0 l/m 15,5 km/h (3 Bft) W-SW 247 9,0 C 22,2 C
31.07.2012 11:51 22,0 C 43 % 1018,9 hPa 0,0 l/m 11,9 km/h (2 Bft) S-SW 202 8,8 C 22,0 C
31.07.2012 11:56 22,0 C 44 % 1018,9 hPa 0,0 l/m 4,0 km/h (1 Bft) W 270 9,2 C 22,0 C
31.07.2012 12:01 21,9 C 44 % 1018,9 hPa 0,0 l/m 9,7 km/h (2 Bft) W-SW 247 9,1 C 21,9 C
31.07.2012 12:06 21,9 C 44 % 1018,9 hPa 0,0 l/m 7,6 km/h (2 Bft) S-SW 202 9,1 C 21,9 C
31.07.2012 12:11 21,8 C 45 % 1018,8 hPa 0,0 l/m 9,7 km/h (2 Bft) SW 225 9,3 C 21,8 C
31.07.2012 12:16 21,7 C 45 % 1018,9 hPa 0,0 l/m 9,7 km/h (2 Bft) W 270 9,2 C 21,7 C
31.07.2012 12:21 21,3 C 45 % 1018,9 hPa 0,0 l/m 9,7 km/h (2 Bft) W-SW 247 8,9 C 21,3 C
31.07.2012 12:26 20,9 C 47 % 1019,0 hPa 0,0 l/m 6,1 km/h (2 Bft) SW 225 9,2 C 20,9 C
31.07.2012 12:31 20,6 C 47 % 1018,9 hPa 0,0 l/m 3,2 km/h (1 Bft) W 270 8,9 C 20,6 C
31.07.2012 12:36 20,4 C 48 % 1018,9 hPa 0,0 l/m 10,8 km/h (2 Bft) SW 225 9,0 C 20,4 C
31.07.2012 12:41 20,4 C 48 % 1018,8 hPa 0,0 l/m 4,0 km/h (1 Bft) W-NW 292 9,0 C 20,4 C
31.07.2012 12:46 20,6 C 48 % 1018,7 hPa 0,0 l/m 7,2 km/h (2 Bft) W-SW 247 9,2 C 20,6 C
31.07.2012 12:51 20,9 C 48 % 1018,7 hPa 0,0 l/m 5,8 km/h (2 Bft) W-SW 247 9,5 C 20,9 C
31.07.2012 12:56 21,1 C 49 % 1018,8 hPa 0,0 l/m 4,3 km/h (1 Bft) NW 315 10,0 C 21,1 C
31.07.2012 13:01 21,4 C 47 % 1018,7 hPa 0,0 l/m 4,0 km/h (1 Bft) W-SW 247 9,6 C 21,4 C
31.07.2012 13:06 21,4 C 48 % 1018,6 hPa 0,0 l/m 5,0 km/h (1 Bft) W-SW 247 9,9 C 21,4 C
31.07.2012 13:11 21,2 C 48 % 1018,7 hPa 0,0 l/m 5,8 km/h (2 Bft) SW 225 9,7 C 21,2 C
31.07.2012 13:16 20,9 C 48 % 1018,6 hPa 0,0 l/m 9,4 km/h (2 Bft) W 270 9,5 C 20,9 C
31.07.2012 13:21 20,8 C 49 % 1018,6 hPa 0,0 l/m 7,2 km/h (2 Bft) W 270 9,7 C 20,8 C
31.07.2012 13:26 20,9 C 49 % 1018,6 hPa 0,0 l/m 12,2 km/h (2 Bft) W-SW 247 9,8 C 20,9 C
31.07.2012 13:31 21,1 C 49 % 1018,6 hPa 0,0 l/m 5,0 km/h (1 Bft) W-NW 292 10,0 C 21,1 C
31.07.2012 13:36 21,4 C 49 % 1018,6 hPa 0,0 l/m 13,3 km/h (3 Bft) W-SW 247 10,2 C 21,4 C
31.07.2012 13:41 21,8 C 48 % 1018,6 hPa 0,0 l/m 8,3 km/h (2 Bft) W 270 10,3 C 21,8 C
31.07.2012 13:46 22,1 C 45 % 1018,6 hPa 0,0 l/m 6,8 km/h (2 Bft) SW 225 9,6 C 22,1 C
31.07.2012 13:51 22,2 C 43 % 1018,6 hPa 0,0 l/m 16,6 km/h (3 Bft) S-SW 202 9,0 C 22,2 C
31.07.2012 13:56 22,1 C 43 % 1018,6 hPa 0,0 l/m 24,8 km/h (4 Bft) W 270 8,9 C 22,1 C
31.07.2012 14:01 21,9 C 43 % 1018,6 hPa 0,0 l/m 14,4 km/h (3 Bft) W-SW 247 8,7 C 21,9 C
31.07.2012 14:06 21,8 C 44 % 1018,6 hPa 0,0 l/m 7,2 km/h (2 Bft) S-SW 202 9,0 C 21,8 C
31.07.2012 14:11 21,6 C 44 % 1018,6 hPa 0,0 l/m 13,7 km/h (3 Bft) SW 225 8,8 C 21,6 C
31.07.2012 14:16 21,6 C 44 % 1018,5 hPa 0,0 l/m 14,4 km/h (3 Bft) W 270 8,8 C 21,6 C
31.07.2012 14:21 21,6 C 44 % 1018,5 hPa 0,0 l/m 7,2 km/h (2 Bft) W-SW 247 8,8 C 21,6 C
31.07.2012 14:26 21,8 C 45 % 1018,6 hPa 0,0 l/m 10,4 km/h (2 Bft) W-NW 292 9,3 C 21,8 C
31.07.2012 14:31 22,1 C 44 % 1018,6 hPa 0,0 l/m 3,2 km/h (1 Bft) SW 225 9,3 C 22,1 C
31.07.2012 14:36 22,2 C 44 % 1018,6 hPa 0,0 l/m 8,3 km/h (2 Bft) W 270 9,4 C 22,2 C
31.07.2012 14:41 22,2 C 44 % 1018,6 hPa 0,0 l/m 7,9 km/h (2 Bft) W-NW 292 9,4 C 22,2 C
31.07.2012 14:46 22,1 C 44 % 1018,7 hPa 0,0 l/m 13,0 km/h (3 Bft) W-SW 247 9,3 C 22,1 C
31.07.2012 14:51 22,0 C 44 % 1018,7 hPa 0,0 l/m 15,8 km/h (3 Bft) W-SW 247 9,2 C 22,0 C
31.07.2012 14:56 21,9 C 46 % 1018,6 hPa 0,0 l/m 10,8 km/h (2 Bft) W-SW 247 9,7 C 21,9 C
31.07.2012 15:01 21,8 C 45 % 1018,7 hPa 0,0 l/m 7,6 km/h (2 Bft) SW 225 9,3 C 21,8 C
31.07.2012 15:06 21,5 C 44 % 1018,7 hPa 0,0 l/m 18,7 km/h (3 Bft) W-SW 247 8,7 C 21,5 C
31.07.2012 15:11 21,4 C 44 % 1018,6 hPa 0,0 l/m 13,7 km/h (3 Bft) W 270 8,6 C 21,4 C
31.07.2012 15:16 21,3 C 45 % 1018,7 hPa 0,0 l/m 7,6 km/h (2 Bft) W-SW 247 8,9 C 21,3 C
31.07.2012 15:21 21,1 C 45 % 1018,6 hPa 0,0 l/m 14,4 km/h (3 Bft) W-SW 247 8,7 C 21,1 C
31.07.2012 15:26 20,9 C 46 % 1018,6 hPa 0,0 l/m 9,4 km/h (2 Bft) W-SW 247 8,8 C 20,9 C
31.07.2012 15:31 20,9 C 46 % 1018,7 hPa 0,0 l/m 6,8 km/h (2 Bft) W-SW 247 8,8 C 20,9 C
31.07.2012 15:36 20,9 C 47 % 1018,6 hPa 0,0 l/m 7,6 km/h (2 Bft) W-SW 247 9,2 C 20,9 C
31.07.2012 15:41 20,9 C 47 % 1018,5 hPa 0,0 l/m 6,5 km/h (2 Bft) SW 225 9,2 C 20,9 C
31.07.2012 15:46 20,9 C 47 % 1018,8 hPa 0,0 l/m 9,0 km/h (2 Bft) W-SW 247 9,2 C 20,9 C
31.07.2012 15:51 20,9 C 47 % 1018,8 hPa 0,0 l/m 9,7 km/h (2 Bft) W-SW 247 9,2 C 20,9 C
31.07.2012 15:56 20,9 C 46 % 1018,7 hPa 0,0 l/m 11,9 km/h (2 Bft) W-SW 247 8,8 C 20,9 C
31.07.2012 16:01 21,0 C 47 % 1018,9 hPa 0,0 l/m 15,8 km/h (3 Bft) W-SW 247 9,3 C 21,0 C
31.07.2012 16:06 21,2 C 46 % 1018,9 hPa 0,0 l/m 13,3 km/h (3 Bft) W 270 9,1 C 21,2 C
31.07.2012 16:11 21,2 C 45 % 1018,8 hPa 0,0 l/m 6,1 km/h (2 Bft) W 270 8,8 C 21,2 C
31.07.2012 16:16 21,3 C 47 % 1018,8 hPa 0,0 l/m 5,8 km/h (2 Bft) W-SW 247 9,5 C 21,3 C
31.07.2012 16:21 21,6 C 46 % 1018,7 hPa 0,0 l/m 4,0 km/h (1 Bft) S-SW 202 9,5 C 21,6 C
31.07.2012 16:26 21,8 C 46 % 1018,7 hPa 0,0 l/m 3,2 km/h (1 Bft) W-NW 292 9,7 C 21,8 C
31.07.2012 16:31 21,9 C 45 % 1018,6 hPa 0,0 l/m 13,3 km/h (3 Bft) NW 315 9,4 C 21,9 C
31.07.2012 16:36 21,9 C 45 % 1018,7 hPa 0,0 l/m 8,6 km/h (2 Bft) W-SW 247 9,4 C 21,9 C
31.07.2012 16:41 21,8 C 44 % 1018,7 hPa 0,0 l/m 11,2 km/h (2 Bft) W-NW 292 9,0 C 21,8 C
31.07.2012 16:46 21,6 C 45 % 1018,7 hPa 0,0 l/m 5,4 km/h (1 Bft) W-SW 247 9,2 C 21,6 C
31.07.2012 16:51 21,5 C 45 % 1018,8 hPa 0,0 l/m 9,4 km/h (2 Bft) W-SW 247 9,1 C 21,5 C
31.07.2012 16:56 21,3 C 45 % 1018,7 hPa 0,0 l/m 7,2 km/h (2 Bft) W-SW 247 8,9 C 21,3 C
31.07.2012 17:01 21,1 C 45 % 1018,6 hPa 0,0 l/m 7,6 km/h (2 Bft) W 270 8,7 C 21,1 C
31.07.2012 17:06 20,9 C 46 % 1018,7 hPa 0,0 l/m 6,5 km/h (2 Bft) W 270 8,8 C 20,9 C
31.07.2012 17:11 20,8 C 46 % 1018,5 hPa 0,0 l/m 5,8 km/h (2 Bft) W-SW 247 8,8 C 20,8 C
31.07.2012 17:16 20,7 C 47 % 1018,6 hPa 0,0 l/m 1,8 km/h (1 Bft) SW 225 9,0 C 20,7 C
31.07.2012 17:21 20,8 C 48 % 1018,6 hPa 0,0 l/m 2,9 km/h (1 Bft) W-SW 247 9,4 C 20,8 C
31.07.2012 17:26 20,8 C 48 % 1018,5 hPa 0,0 l/m 2,5 km/h (1 Bft) W 270 9,4 C 20,8 C
31.07.2012 17:31 20,9 C 48 % 1018,3 hPa 0,0 l/m 4,0 km/h (1 Bft) SW 225 9,5 C 20,9 C
31.07.2012 17:36 20,9 C 48 % 1018,5 hPa 0,0 l/m 2,2 km/h (1 Bft) SW 225 9,5 C 20,9 C
31.07.2012 17:41 20,9 C 48 % 1018,5 hPa 0,0 l/m 4,7 km/h (1 Bft) W-SW 247 9,5 C 20,9 C
31.07.2012 17:46 20,9 C 47 % 1018,4 hPa 0,0 l/m 4,7 km/h (1 Bft) W 270 9,2 C 20,9 C
31.07.2012 17:51 20,6 C 48 % 1018,5 hPa 0,0 l/m 3,6 km/h (1 Bft) SW 225 9,2 C 20,6 C
31.07.2012 17:56 20,5 C 48 % 1018,5 hPa 0,0 l/m 5,0 km/h (1 Bft) SW 225 9,1 C 20,5 C
31.07.2012 18:01 20,4 C 49 % 1018,5 hPa 0,0 l/m 6,1 km/h (2 Bft) SW 225 9,3 C 20,4 C
31.07.2012 18:06 20,2 C 49 % 1018,6 hPa 0,0 l/m 2,2 km/h (1 Bft) SW 225 9,1 C 20,2 C
31.07.2012 18:11 20,1 C 50 % 1018,6 hPa 0,0 l/m 5,8 km/h (2 Bft) SW 225 9,3 C 20,1 C
31.07.2012 18:16 20,1 C 51 % 1018,3 hPa 0,0 l/m 4,3 km/h (1 Bft) S-SW 202 9,6 C 20,1 C
31.07.2012 18:21 20,1 C 51 % 1018,4 hPa 0,0 l/m 3,6 km/h (1 Bft) SW 225 9,6 C 20,1 C
31.07.2012 18:26 19,9 C 51 % 1018,4 hPa 0,0 l/m 3,6 km/h (1 Bft) S-SW 202 9,5 C 19,9 C
31.07.2012 18:31 19,9 C 51 % 1018,3 hPa 0,0 l/m 2,9 km/h (1 Bft) S-SW 202 9,5 C 19,9 C
31.07.2012 18:36 19,9 C 50 % 1018,2 hPa 0,0 l/m 5,0 km/h (1 Bft) SW 225 9,2 C 19,9 C
31.07.2012 18:41 19,9 C 50 % 1018,4 hPa 0,0 l/m 6,1 km/h (2 Bft) W-SW 247 9,2 C 19,9 C
31.07.2012 18:46 19,8 C 50 % 1018,4 hPa 0,0 l/m 5,0 km/h (1 Bft) W-SW 247 9,1 C 19,8 C
31.07.2012 18:51 19,8 C 50 % 1018,3 hPa 0,0 l/m 2,9 km/h (1 Bft) W-SW 247 9,1 C 19,8 C
31.07.2012 18:56 19,6 C 51 % 1018,3 hPa 0,0 l/m 0,0 km/h (0 Bft) W-SW 247 9,2 C 19,6 C
31.07.2012 19:01 19,6 C 51 % 1018,3 hPa 0,0 l/m 0,0 km/h (0 Bft) W-SW 247 9,2 C 19,6 C
31.07.2012 19:06 19,6 C 52 % 1018,3 hPa 0,0 l/m 0,0 km/h (0 Bft) S-SW 202 9,5 C 19,6 C
31.07.2012 19:11 19,5 C 52 % 1018,3 hPa 0,0 l/m 2,5 km/h (1 Bft) S-SW 202 9,4 C 19,5 C
31.07.2012 19:16 19,4 C 52 % 1018,5 hPa 0,0 l/m 0,0 km/h (0 Bft) S-SW 202 9,3 C 19,4 C
31.07.2012 19:21 19,4 C 53 % 1018,5 hPa 0,0 l/m 2,2 km/h (1 Bft) S-SW 202 9,6 C 19,4 C
31.07.2012 19:26 19,3 C 53 % 1018,5 hPa 0,0 l/m 0,0 km/h (0 Bft) S-SW 202 9,5 C 19,3 C
31.07.2012 19:31 19,3 C 53 % 1018,5 hPa 0,0 l/m 1,4 km/h (1 Bft) W 270 9,5 C 19,3 C
31.07.2012 19:36 19,2 C 54 % 1018,5 hPa 0,0 l/m 1,4 km/h (1 Bft) W 270 9,7 C 19,2 C
31.07.2012 19:41 19,1 C 55 % 1018,6 hPa 0,0 l/m 0,0 km/h (0 Bft) W 270 9,8 C 19,1 C
31.07.2012 19:46 19,1 C 57 % 1018,6 hPa 0,0 l/m 4,0 km/h (1 Bft) W 270 10,4 C 19,1 C
31.07.2012 19:51 18,9 C 58 % 1018,6 hPa 0,0 l/m 0,0 km/h (0 Bft) SW 225 10,5 C 18,9 C
31.07.2012 19:56 18,9 C 58 % 1018,6 hPa 0,0 l/m 2,5 km/h (1 Bft) S-SW 202 10,5 C 18,9 C
31.07.2012 20:01 18,8 C 58 % 1018,6 hPa 0,0 l/m 2,5 km/h (1 Bft) S-SW 202 10,4 C 18,8 C
31.07.2012 20:06 18,6 C 57 % 1018,7 hPa 0,0 l/m 1,4 km/h (1 Bft) SW 225 9,9 C 18,6 C
31.07.2012 20:11 18,6 C 57 % 1018,9 hPa 0,0 l/m 5,0 km/h (1 Bft) W-SW 247 9,9 C 18,6 C
31.07.2012 20:16 18,5 C 59 % 1018,9 hPa 0,0 l/m 0,0 km/h (0 Bft) W 270 10,3 C 18,5 C
31.07.2012 20:21 18,5 C 60 % 1018,9 hPa 0,0 l/m 0,0 km/h (0 Bft) W 270 10,6 C 18,5 C
31.07.2012 20:26 18,4 C 60 % 1018,7 hPa 0,0 l/m 6,8 km/h (2 Bft) W-SW 247 10,5 C 18,4 C
31.07.2012 20:31 18,3 C 59 % 1018,8 hPa 0,0 l/m 0,0 km/h (0 Bft) W 270 10,1 C 18,3 C
31.07.2012 20:36 18,2 C 60 % 1018,7 hPa 0,0 l/m 0,0 km/h (0 Bft) W 270 10,3 C 18,2 C
31.07.2012 20:41 18,1 C 61 % 1018,7 hPa 0,0 l/m 0,0 km/h (0 Bft) W 270 10,5 C 18,1 C
31.07.2012 20:46 18,0 C 62 % 1018,6 hPa 0,0 l/m 0,0 km/h (0 Bft) W 270 10,6 C 18,0 C
31.07.2012 20:51 17,9 C 63 % 1018,8 hPa 0,0 l/m 0,0 km/h (0 Bft) W 270 10,8 C 17,9 C
31.07.2012 20:56 17,9 C 63 % 1018,8 hPa 0,0 l/m 7,9 km/h (2 Bft) N 360 10,8 C 17,9 C
31.07.2012 21:01 17,7 C 64 % 1018,8 hPa 0,0 l/m 0,0 km/h (0 Bft) N-NO 22 10,8 C 17,7 C
31.07.2012 21:06 17,5 C 64 % 1018,9 hPa 0,0 l/m 0,0 km/h (0 Bft) N-NO 22 10,6 C 17,5 C
31.07.2012 21:11 17,5 C 64 % 1018,9 hPa 0,0 l/m 0,0 km/h (0 Bft) N-NO 22 10,6 C 17,5 C
31.07.2012 21:16 17,4 C 64 % 1018,9 hPa 0,0 l/m 0,0 km/h (0 Bft) N-NO 22 10,5 C 17,4 C
31.07.2012 21:21 17,4 C 64 % 1019,0 hPa 0,0 l/m 0,0 km/h (0 Bft) N-NO 22 10,5 C 17,4 C
31.07.2012 21:26 17,4 C 64 % 1019,0 hPa 0,0 l/m 0,0 km/h (0 Bft) N-NO 22 10,5 C 17,4 C
31.07.2012 21:31 17,4 C 64 % 1019,1 hPa 0,0 l/m 0,0 km/h (0 Bft) N-NO 22 10,5 C 17,4 C
31.07.2012 21:36 17,4 C 65 % 1019,2 hPa 0,0 l/m 0,0 km/h (0 Bft) N-NO 22 10,8 C 17,4 C
31.07.2012 21:41 17,3 C 64 % 1019,3 hPa 0,0 l/m 2,5 km/h (1 Bft) N-NO 22 10,4 C 17,3 C
31.07.2012 21:46 17,3 C 64 % 1019,2 hPa 0,0 l/m 0,0 km/h (0 Bft) NO 45 10,4 C 17,3 C
31.07.2012 21:51 17,3 C 64 % 1019,2 hPa 0,0 l/m 0,0 km/h (0 Bft) O-NO 67 10,4 C 17,3 C
31.07.2012 21:56 17,2 C 64 % 1019,3 hPa 0,0 l/m 3,6 km/h (1 Bft) N-NO 22 10,3 C 17,2 C
31.07.2012 22:01 17,2 C 64 % 1019,2 hPa 0,0 l/m 2,5 km/h (1 Bft) NO 45 10,3 C 17,2 C
31.07.2012 22:06 17,2 C 64 % 1019,2 hPa 0,0 l/m 4,0 km/h (1 Bft) NO 45 10,3 C 17,2 C
31.07.2012 22:11 17,1 C 64 % 1019,3 hPa 0,0 l/m 0,0 km/h (0 Bft) O-NO 67 10,2 C 17,1 C
31.07.2012 22:16 17,1 C 65 % 1019,3 hPa 0,0 l/m 2,2 km/h (1 Bft) NO 45 10,5 C 17,1 C
31.07.2012 22:21 17,1 C 65 % 1019,4 hPa 0,0 l/m 3,6 km/h (1 Bft) NO 45 10,5 C 17,1 C
31.07.2012 22:26 17,1 C 65 % 1019,4 hPa 0,0 l/m 4,7 km/h (1 Bft) NO 45 10,5 C 17,1 C
31.07.2012 22:31 17,1 C 65 % 1019,4 hPa 0,0 l/m 2,9 km/h (1 Bft) O-NO 67 10,5 C 17,1 C
31.07.2012 22:36 17,0 C 65 % 1019,3 hPa 0,0 l/m 2,5 km/h (1 Bft) O-NO 67 10,4 C 17,0 C
31.07.2012 22:41 16,9 C 65 % 1019,4 hPa 0,0 l/m 2,5 km/h (1 Bft) O-NO 67 10,3 C 16,9 C
31.07.2012 22:46 16,9 C 65 % 1019,4 hPa 0,0 l/m 2,2 km/h (1 Bft) O-NO 67 10,3 C 16,9 C
31.07.2012 22:51 16,9 C 66 % 1019,5 hPa 0,0 l/m 1,8 km/h (1 Bft) O-NO 67 10,5 C 16,9 C
31.07.2012 22:56 16,9 C 66 % 1019,5 hPa 0,0 l/m 1,4 km/h (1 Bft) O-NO 67 10,5 C 16,9 C
31.07.2012 23:01 16,9 C 66 % 1019,5 hPa 0,0 l/m 1,4 km/h (1 Bft) O-NO 67 10,5 C 16,9 C
31.07.2012 23:06 16,9 C 66 % 1019,7 hPa 0,0 l/m 5,0 km/h (1 Bft) O-NO 67 10,5 C 16,9 C
31.07.2012 23:11 16,8 C 66 % 1019,5 hPa 0,0 l/m 0,0 km/h (0 Bft) NO 45 10,4 C 16,8 C
31.07.2012 23:16 16,8 C 66 % 1019,5 hPa 0,0 l/m 3,2 km/h (1 Bft) O-NO 67 10,4 C 16,8 C
31.07.2012 23:21 16,8 C 66 % 1019,6 hPa 0,0 l/m 2,9 km/h (1 Bft) O-NO 67 10,4 C 16,8 C
31.07.2012 23:26 16,8 C 67 % 1019,5 hPa 0,0 l/m 1,8 km/h (1 Bft) O-NO 67 10,6 C 16,8 C
31.07.2012 23:31 16,7 C 67 % 1019,5 hPa 0,0 l/m 1,4 km/h (1 Bft) O-NO 67 10,5 C 16,7 C
31.07.2012 23:36 16,6 C 67 % 1019,5 hPa 0,0 l/m 2,9 km/h (1 Bft) O-NO 67 10,4 C 16,6 C
31.07.2012 23:41 16,6 C 67 % 1019,4 hPa 0,0 l/m 4,0 km/h (1 Bft) NO 45 10,4 C 16,6 C
31.07.2012 23:46 16,6 C 67 % 1019,5 hPa 0,0 l/m 1,1 km/h (1 Bft) NO 45 10,4 C 16,6 C
31.07.2012 23:51 16,6 C 68 % 1019,5 hPa 0,0 l/m 2,5 km/h (1 Bft) O-NO 67 10,7 C 16,6 C
31.07.2012 23:56 16,6 C 68 % 1019,5 hPa 0,0 l/m 4,7 km/h (1 Bft) O-NO 67 10,7 C 16,6 C
_ Min-Zeit 05:51 11:46 00:26 - 00:01 - - 00:01 05:51
Minimum _ 11,4 C 43 % 1017,8 hPa - 0,0 km/h (0 Bft) - - 8,2 C 11,4 C
_ Max-Zeit 11:36 06:06 23:06 00:01 13:56 - - 07:31 11:36
Maximum _ 22,2 C 82 % 1019,7 hPa 0,0 l/m 24,8 km/h
W (4 Bft)
- - 11,3 C 22,2 C
Durchschnitt _ 17,5 C 61 % 1018,6 hPa #0,0 l/m 4,5 km/h (1 Bft) W-SW - 9,6 C 17,5 C
(c) by David Heller